НПС Ярославль

Карта отелей и гостиниц, располагающихся рядом с аэропортом НПС Ярославль :

НПС Ярославль Ярославская область 57° 32' 26.5812" N, 39° 50' 58.4412" E
Код аэродрома ИКАО
HET0
Код аэродрома RU
ХЕТ0
Координаты
N57.54072° E039.84957°
Превышение над уровнем моря
165
Основная полоса
10/28
Курс магнитный
097,3/277,3
Длина основной ВПП
17
Ширина основной ВПП
15
Покрытие основной ВПП
Твёрдое
Освещение ВПП
Нет
Тип: 
Вертодром
Класс аэродрома: 
Принадлежность: 
ГА
Статус: 
Действующий
Сайт: 
E-mail аэродрома: 
Страна: 
Россия
Регион: 
Ярославская область
Город: 
Дополнительная информация: 

Найти трансфер

С помощью этой формы Вы можете найти трансфер из аэропорта НПС Ярославль в город, аэропорт или вокзал:

Карта места

Javascript is required to view this map.

Погода в аэропортах:

Авиационная погода в Сыктывкаре

Регион: 
Погода METAR: 
UUYY 281300Z 18006MPS 9000 -SHSN BKN011 OVC020CB M01/M02 Q1002 R18/550535 NOSIG RMK QFE743/0991
Время наблюдения
2021-11-28T13:00:00Z
Температура C
-1.0
Точка росы
-2.0
Направление ветра
180
Скорость ветра (узлы)
12
Метео видимость
5.59
Явления погоды
-SHSN
Условия полета
MVFR
Аэропорт подробнее: 

Авиационная погода в Борисполе

Регион: 
Погода METAR: 
UKBB 281300Z 12005MPS 0750 0500W R36R/1000D R36L/0900D PRFG OVC001 04/04 Q1003 TEMPO 0300 FG VV001
Время наблюдения
2021-11-28T13:00:00Z
Температура C
4.0
Точка росы
4.0
Направление ветра
120
Скорость ветра (узлы)
10
Метео видимость
0.47
Явления погоды
PRFG
Условия полета
LIFR
Аэропорт подробнее: 

Авиационная погода в Кривом Роге

Регион: 
Погода METAR: 
UKDR 281300Z 14005MPS 0450 R18/0900N FG VV002 09/09 Q1005 BECMG 0500 FG VV002
Время наблюдения
2021-11-28T13:00:00Z
Температура C
9.0
Точка росы
9.0
Направление ветра
140
Скорость ветра (узлы)
10
Метео видимость
0.28
Явления погоды
FG
Условия полета
LIFR
Аэропорт подробнее: 

Авиационная погода в Самаре

Регион: 
Погода METAR: 
UWWW 281300Z 18008MPS 9000 -FZRA OVC008 M01/M03 Q1016 R15/590234 TEMPO 2000 FZRA RMK QFE750/1000
Время наблюдения
2021-11-28T13:00:00Z
Температура C
-1.0
Точка росы
-3.0
Направление ветра
180
Скорость ветра (узлы)
16
Метео видимость
5.59
Явления погоды
-FZRA
Условия полета
IFR
Аэропорт подробнее: